createdAt,value
2018-09-13T00:02:39.275Z,99.900002
2018-09-13T00:07:41.426Z,99.900002
2018-09-13T00:12:43.740Z,99.900002
2018-09-13T00:17:46.004Z,99.900002
2018-09-13T00:22:48.338Z,99.900002
2018-09-13T00:27:50.692Z,99.900002
2018-09-13T00:32:52.914Z,99.900002
2018-09-13T00:37:55.179Z,99.900002
2018-09-13T00:42:57.520Z,99.900002
2018-09-13T00:47:59.749Z,99.900002
2018-09-13T00:53:02.102Z,99.900002
2018-09-13T00:58:04.455Z,99.900002
2018-09-13T01:03:06.737Z,99.900002
2018-09-13T01:08:08.967Z,99.900002
2018-09-13T01:13:11.340Z,99.900002
2018-09-13T01:18:13.527Z,99.900002
2018-09-13T01:23:15.859Z,99.900002
2018-09-13T01:28:18.173Z,99.900002
2018-09-13T01:33:20.604Z,99.900002
2018-09-13T01:38:22.797Z,99.900002
2018-09-13T01:43:25.134Z,99.900002
2018-09-13T01:48:27.394Z,99.900002
2018-09-13T01:53:30.999Z,99.900002
2018-09-13T01:58:31.992Z,99.900002
2018-09-13T02:03:34.278Z,99.900002
2018-09-13T02:08:36.662Z,99.900002
2018-09-13T02:13:38.913Z,99.900002
2018-09-13T02:18:41.212Z,99.900002
2018-09-13T02:23:43.377Z,99.5
2018-09-13T02:28:45.655Z,99.5
2018-09-13T02:33:48.121Z,99.900002
2018-09-13T02:38:50.313Z,98.400002
2018-09-13T02:43:52.593Z,98.599998
2018-09-13T02:48:54.769Z,99.400002
2018-09-13T02:53:57.178Z,99.5
2018-09-13T02:58:59.487Z,99
2018-09-13T03:04:01.724Z,99.900002
2018-09-13T03:09:04.009Z,99.900002
2018-09-13T03:14:06.427Z,99.900002
2018-09-13T03:19:08.592Z,99.900002
2018-09-13T03:24:10.892Z,99.900002
2018-09-13T03:29:13.220Z,99.900002
2018-09-13T03:34:15.524Z,99.900002
2018-09-13T03:39:17.722Z,99.900002
2018-09-13T03:44:20.107Z,99.900002
2018-09-13T03:49:22.322Z,99.900002
2018-09-13T03:54:24.705Z,99.5
2018-09-13T03:59:27.022Z,99.900002
2018-09-13T04:04:29.213Z,99.900002
2018-09-13T04:09:31.619Z,99.699997
2018-09-13T04:14:33.953Z,99.900002
2018-09-13T04:19:36.080Z,99.900002
2018-09-13T04:24:38.440Z,99.900002
2018-09-13T04:29:40.777Z,99.900002
2018-09-13T04:34:43.087Z,99.900002
2018-09-13T04:39:45.406Z,99.900002
2018-09-13T04:44:47.641Z,99.900002
2018-09-13T04:49:49.901Z,99.300003
2018-09-13T04:54:52.301Z,99.900002
2018-09-13T04:59:54.569Z,99.900002
2018-09-13T05:04:56.866Z,99.699997
2018-09-13T05:09:59.040Z,99.400002
2018-09-13T05:15:01.411Z,99.199997
2018-09-13T05:20:03.651Z,98.599998
2018-09-13T05:25:06.093Z,98.699997
2018-09-13T05:30:08.264Z,99.599998
2018-09-13T05:35:10.739Z,98.699997
2018-09-13T05:40:12.938Z,98.599998
2018-09-13T05:45:15.174Z,98
2018-09-13T05:50:17.453Z,98.300003
2018-09-13T05:55:19.735Z,97.5
2018-09-13T06:00:22.037Z,98.5
2018-09-13T06:05:24.358Z,97.699997
2018-09-13T06:10:26.689Z,98.699997
2018-09-13T06:15:28.916Z,97.300003
2018-09-13T06:20:31.363Z,98.5
2018-09-13T06:25:33.573Z,97.599998
2018-09-13T06:30:35.878Z,98
2018-09-13T06:35:38.122Z,97.5
2018-09-13T06:40:40.379Z,97.099998
2018-09-13T06:45:42.812Z,97.800003
2018-09-13T06:50:44.957Z,96.300003
2018-09-13T06:55:47.276Z,96
2018-09-13T07:00:49.659Z,96.300003
2018-09-13T07:05:51.812Z,96.900002
2018-09-13T07:10:54.204Z,95.800003
2018-09-13T07:15:56.563Z,95.5
2018-09-13T07:20:58.787Z,94.699997
2018-09-13T07:26:01.072Z,94.900002
2018-09-13T07:31:03.352Z,94.400002
2018-09-13T07:36:05.657Z,94.300003
2018-09-13T07:41:07.911Z,93.800003
2018-09-13T07:46:10.219Z,92.199997
2018-09-13T07:51:12.562Z,91.5
2018-09-13T07:56:14.877Z,91.199997
2018-09-13T08:01:17.103Z,90.800003
2018-09-13T08:06:19.379Z,88.099998
2018-09-13T08:11:21.649Z,88.400002
2018-09-13T08:16:24.137Z,88.699997
2018-09-13T08:21:26.528Z,90.5
2018-09-13T08:26:28.656Z,88.400002
2018-09-13T08:31:30.884Z,87.199997
2018-09-13T08:36:33.159Z,88.699997
2018-09-13T08:41:35.493Z,90
2018-09-13T08:46:37.760Z,85.400002
2018-09-13T08:51:40.000Z,84.099998
2018-09-13T08:56:42.417Z,83.199997
2018-09-13T09:01:44.563Z,81
2018-09-13T09:06:46.906Z,80.699997
2018-09-13T09:11:49.217Z,77.800003
2018-09-13T09:16:51.590Z,78.300003
2018-09-13T09:21:53.759Z,76.900002
2018-09-13T09:26:56.046Z,77
2018-09-13T09:31:58.305Z,74.400002
2018-09-13T09:37:00.581Z,71.300003
2018-09-13T09:42:03.040Z,74.5
2018-09-13T09:47:05.267Z,70.099998
2018-09-13T09:52:07.717Z,67.199997
2018-09-13T09:57:09.889Z,66.599998
2018-09-13T10:02:12.241Z,66.699997
2018-09-13T10:07:14.451Z,65.599998
2018-09-13T10:12:16.737Z,63.099998
2018-09-13T10:17:19.084Z,66.199997
2018-09-13T10:22:21.322Z,65.199997
2018-09-13T10:27:23.606Z,65.800003
2018-09-13T10:32:25.928Z,64.400002
2018-09-13T10:37:28.195Z,62.400002
2018-09-13T10:42:30.447Z,60.299999
2018-09-13T10:47:32.788Z,64.699997
2018-09-13T10:52:35.310Z,60.900002
2018-09-13T10:57:37.437Z,57.700001
2018-09-13T11:02:39.635Z,57
2018-09-13T11:07:41.970Z,52.299999
2018-09-13T11:12:44.227Z,51.099998
2018-09-13T11:17:46.548Z,50.299999
2018-09-13T11:22:48.843Z,42.900002
2018-09-13T11:27:51.140Z,40.200001
2018-09-13T11:32:53.357Z,38.700001
2018-09-13T11:37:55.741Z,41.700001
2018-09-13T11:42:58.080Z,37.700001
2018-09-13T11:48:00.310Z,42.099998
2018-09-13T11:53:02.560Z,41.299999
2018-09-13T11:58:04.924Z,39.900002
2018-09-13T12:03:07.258Z,40.900002
2018-09-13T12:13:11.731Z,40.299999
2018-09-13T12:18:14.249Z,42.299999
2018-09-13T12:23:16.363Z,42.400002
2018-09-13T12:28:18.785Z,42.099998
2018-09-13T12:33:21.073Z,42.400002
2018-09-13T12:38:23.398Z,40.900002
2018-09-13T12:43:25.551Z,37.599998
2018-09-13T12:48:27.778Z,38.799999
2018-09-13T12:53:30.164Z,38.799999
2018-09-13T12:58:32.500Z,40.099998
2018-09-13T13:03:34.726Z,40.400002
2018-09-13T13:08:37.118Z,37.700001
2018-09-13T13:13:39.368Z,35.599998
2018-09-13T13:18:41.640Z,37.599998
2018-09-13T13:23:43.884Z,39.099998
2018-09-13T13:28:46.266Z,40.900002
2018-09-13T13:33:48.522Z,39.400002
2018-09-13T13:38:50.770Z,37.700001
2018-09-13T13:43:53.116Z,36.700001
2018-09-13T13:48:55.402Z,38.900002
2018-09-13T13:53:57.834Z,39.200001
2018-09-13T13:59:00.082Z,38.5
2018-09-13T14:04:02.246Z,41.099998
2018-09-13T14:09:05.577Z,43
2018-09-13T14:14:08.552Z,39.099998
2018-09-13T14:19:09.273Z,39.400002
2018-09-13T14:24:11.400Z,38.099998
2018-09-13T14:29:13.736Z,39.900002
2018-09-13T14:34:16.066Z,37.700001
2018-09-13T14:39:18.307Z,36.599998
2018-09-13T14:44:20.586Z,35.400002
2018-09-13T14:49:22.870Z,38
2018-09-13T14:54:25.479Z,39.799999
2018-09-13T14:59:28.663Z,37.599998
2018-09-13T15:04:29.791Z,41.5
2018-09-13T15:09:32.142Z,43.700001
2018-09-13T15:14:34.347Z,41.400002
2018-09-13T15:19:36.847Z,38.200001
2018-09-13T15:24:39.047Z,38.5
2018-09-13T15:29:41.329Z,38.099998
2018-09-13T15:39:45.946Z,37.799999
2018-09-13T15:44:49.528Z,37.799999
2018-09-13T15:49:50.440Z,36.299999
2018-09-13T15:54:52.811Z,37.599998
2018-09-13T15:59:55.040Z,34.299999
2018-09-13T16:04:57.352Z,36.5
2018-09-13T16:09:59.691Z,38.299999
2018-09-13T16:15:03.115Z,39.200001
2018-09-13T16:20:04.365Z,42.799999
2018-09-13T16:25:06.668Z,43.200001
2018-09-13T16:30:08.806Z,45
2018-09-13T16:35:11.230Z,42.900002
2018-09-13T16:40:13.424Z,46.099998
2018-09-13T16:45:15.704Z,45.5
2018-09-13T16:50:17.930Z,44.099998
2018-09-13T16:55:20.317Z,47.599998
2018-09-13T17:00:22.632Z,47
2018-09-13T17:05:24.784Z,46.099998
2018-09-13T17:10:27.264Z,46.5
2018-09-13T17:15:29.550Z,47.099998
2018-09-13T17:20:32.075Z,46.900002
2018-09-13T17:25:34.072Z,48.400002
2018-09-13T17:30:37.608Z,48
2018-09-13T17:35:38.886Z,47.900002
2018-09-13T17:40:40.965Z,48.5
2018-09-13T17:45:43.352Z,51.099998
2018-09-13T17:50:45.553Z,52
2018-09-13T17:55:47.887Z,54.599998
2018-09-13T18:00:50.072Z,56
2018-09-13T18:05:52.492Z,57.200001
2018-09-13T18:10:54.703Z,57.5
2018-09-13T18:15:56.926Z,58.200001
2018-09-13T18:21:01.497Z,59.799999
2018-09-13T18:26:01.629Z,61.400002
2018-09-13T18:31:03.859Z,62.900002
2018-09-13T18:36:06.144Z,64.199997
2018-09-13T18:41:08.572Z,65.400002
2018-09-13T18:46:10.936Z,66.400002
2018-09-13T18:51:13.055Z,67
2018-09-13T18:56:15.499Z,68.099998
2018-09-13T19:01:17.628Z,69.300003
2018-09-13T19:06:19.959Z,70.099998
2018-09-13T19:11:22.233Z,71
2018-09-13T19:16:24.551Z,71.800003
2018-09-13T19:21:26.861Z,73
2018-09-13T19:26:29.039Z,73.800003
2018-09-13T19:31:31.419Z,74.300003
2018-09-13T19:36:33.675Z,75.099998
2018-09-13T19:41:36.028Z,75.699997
2018-09-13T19:46:38.301Z,76.199997
2018-09-13T19:51:40.626Z,76.900002
2018-09-13T19:56:42.961Z,77.400002
2018-09-13T20:01:45.142Z,77.5
2018-09-13T20:06:47.540Z,78
2018-09-13T20:11:49.963Z,78.800003
2018-09-13T20:16:52.080Z,79.699997
2018-09-13T20:21:54.354Z,80
2018-09-13T20:26:56.676Z,79.800003
2018-09-13T20:31:59.006Z,80.199997
2018-09-13T20:37:01.137Z,81.099998
2018-09-13T20:42:03.621Z,81.599998
2018-09-13T20:47:05.949Z,82
2018-09-13T20:52:08.126Z,81.699997
2018-09-13T20:57:10.376Z,82.5
2018-09-13T21:02:12.721Z,82.699997
2018-09-13T21:07:14.982Z,82.400002
2018-09-13T21:12:17.409Z,82.900002
2018-09-13T21:17:19.780Z,82.900002
2018-09-13T21:22:21.988Z,83.300003
2018-09-13T21:27:24.129Z,83.300003
2018-09-13T21:32:26.396Z,84
2018-09-13T21:37:28.932Z,84.199997
2018-09-13T21:42:31.028Z,84.599998
2018-09-13T21:47:33.288Z,84.800003
2018-09-13T21:52:35.685Z,84.599998
2018-09-13T21:57:37.924Z,85.199997
2018-09-13T22:02:40.237Z,85.300003
2018-09-13T22:07:42.767Z,85.300003
2018-09-13T22:12:44.993Z,85.199997
2018-09-13T22:17:47.058Z,85.199997
2018-09-13T22:22:49.466Z,85.599998
2018-09-13T22:27:51.744Z,85.800003
2018-09-13T22:32:55.422Z,86
2018-09-13T22:37:56.204Z,85.900002
2018-09-13T22:42:58.530Z,86.400002
2018-09-13T22:48:01.200Z,86.900002
2018-09-13T22:53:03.178Z,86.699997
2018-09-13T22:58:05.386Z,86.599998
2018-09-13T23:03:07.739Z,86.900002
2018-09-13T23:08:10.048Z,86.699997
2018-09-13T23:13:12.330Z,86.900002
2018-09-13T23:18:14.735Z,87
2018-09-13T23:23:16.888Z,87.300003
2018-09-13T23:28:19.228Z,87.599998
2018-09-13T23:33:21.602Z,87.599998
2018-09-13T23:38:23.880Z,87.5
2018-09-13T23:43:26.085Z,87.599998
2018-09-13T23:48:28.428Z,87.900002
2018-09-13T23:53:30.740Z,88.099998
2018-09-13T23:58:33.057Z,88.199997
